Explorer - southeastern half: Past 24 Hour Conditions

 

East Dellwood - 46207

12:00 AM PST 16 February 2019Buoy position: 50.88N 129.93W
Disclaimer

This table is a summary of hourly weather conditions for the past 24 hours.
Please note that these observations might not always be representative of weather conditions over their associated marine area.

Date / Time
(PST)
Wind(knots) Wave height(m) Wave period(s) Pressure(kPa) Air tempC) Water tempC)
16 February 2019
0:00 NNW 14 gust 18 3.7 12.0 100.9 5 8
15 February 2019
23:00 N 14 gust 18 3.3 13.0 100.9 5 8
22:00 N 10 gust 14 3.3 11.0 100.8 5 8
21:00 N 14 gust 23 3.4 12.0 100.7 5 8
20:00 NNW 14 gust 19 3.4 12.0 100.7 5 8
19:00 N 14 gust 18 3.3 12.0 100.7 4 8
18:00 NNW 19 gust 23 3.4 14.0 100.6 4 8
17:00 NNW 18 gust 21 3.2 13.0 100.5 4 8
16:00 NNW 10 gust 14 3.2 14.0 100.5 4 8
15:00 NW 10 gust 12 3.4 14.0 100.4 4 8
14:00 NNW 4 gust 8 3.4 13.0 100.4 4 8
13:00 NNW 6 gust 8 3.6 14.0 100.3 4 8
12:00 NW 8 gust 10 3.7 14.0 100.3 3 8
11:00 NNW 8 gust 12 3.9 14.0 100.2 3 8
10:00 NNW 10 gust 14 3.7 13.0 100.2 3 8
9:00 WNW 12 gust 18 3.8 13.0 100.0 4 8
8:00 NNW 10 gust 18 3.9 14.0 99.9 4 8
7:00 N 10 gust 16 3.9 14.0 99.8 5 8
6:00 NE 6 gust 10 4.2 14.0 99.7 4 8
5:00 NNE 10 gust 14 4.5 14.0 99.6 5 8
4:00 NNE 12 gust 16 4.1 14.0 99.6 5 8
3:00 N 14 gust 18 4.8 14.0 99.5 6 8
2:00 N 16 gust 19 4.2 14.0 99.4 6 8
1:00 N 18 gust 21 4.6 14.0 99.3 6 8
0:00 N 18 gust 23 4.8 15.0 99.2 6 8

Zoom-in to make a selection

Map of Pacific - South Coast marine weather areas South Nomad - 46036 Sentry Shoal - 46131 South Brooks - 46132 Halibut Bank - 46146 South Moresby - 46147 South Hecate Strait - 46185 West Sea Otter - 46204 La Perouse Bank - 46206 East Dellwood - 46207 Discovery Island Esquimalt Harbour Kelp Reefs Malahat Race Rocks Lightstation Saturna Island Sheringham Point University of Victoria Victoria Gonzales Victoria Int'l Airport Ballenas Islands Campbell River Airport Comox Airport Entrance Island Fanny Island Nanaimo Airport Port Hardy Airport Sisters Islets Estevan Point Port Alberni Sartine Island Solander Island Tofino Airport Grief Point Howe Sound - Pam Rocks Powell River Airport Sechelt Squamish Airport Cape St.James Bella Bella Airport Bella Coola Airport Cathedral Point Herbert Island Point Atkinson Sand Heads Lightstation Tsawwassen Ferry Terminal Vancouver Int'l Airport Vancouver Harbour West Vancouver
Legend:
buoy Buoy
land station Land Station

Pacific - South Coast Area

Another Region

What we are doing

Date modified: